Aérodrome :
LOGIN :

S'inscrire | Disclaimer

   EN    FR    IT 

 










Légende :    VFR   VFR Marginal   IFR   IFR Intensif   IFR Très Intensif
Visi : 
Plafond : 
>= 8 km
>= 3000ft
5 à 8 km
1000 à 3000 ft
1500m à 5 km
500 à 1000 ft
800 à 1500m
200 à 500 ft
< 800m
< 200 ft
Symboles :   Orages  Brouillard  Fortes neiges  Fortes précipitations  Vent > 20 kt
SIGMETs :   Divers  Orages  Givrage  Turbulence  Onde Orograph.  Cendres Volcan.






- Altitude de l'aérodrome : 23 ft
- Code IATA : CKZ


LTBH - Çanakkale

DERNIER METAR :
  • 290550Z 22014KT 9999 FEW030TCU SCT035 23/21 Q1012

METARs EXPIRÉS :
  • 290450Z 22010KT 9999 FEW015 SCT035 24/20 Q1012
  • 290350Z 20011KT 9999 FEW015 SCT035 24/19 Q1012

TAF TAF LTBH
Valide du 29 à 06h jusqu'au 29 à 15h UTC


290440Z 2906/2915 17010KT 9999 SCT035 BKN100
TEMPO 2908/2912 -TSRA FEW025CB BKN030



MET'MAP, la Météo Aéronautique d'un coup d'oeil ! - Copyright ORBIFLY Décembre 2007 - Disclaimer

ORBIFLY MET'MAP TEAM :

Programmation & Développement : Alexandra Zaïnal
Sur une idée originale de : Baudouin d'Aumeries
Assistance à la programmation : Marc-Olivier Méhu
Soutien technique & logistique : Manuel Goepfert

Contact : metmap@orbifly.com




SOURCES & CREDITS :

   NOAA